sensor_id;sensor_type;location;lat;lon;timestamp;P1;durP1;ratioP1;P2;durP2;ratioP2
23179;SDS011;11758;45.756;11.432;2023-03-20T00:02:52;28.20;;;19.50;;
23179;SDS011;11758;45.756;11.432;2023-03-20T00:05:19;33.70;;;20.92;;
23179;SDS011;11758;45.756;11.432;2023-03-20T00:07:47;33.72;;;19.83;;
23179;SDS011;11758;45.756;11.432;2023-03-20T00:10:15;28.63;;;18.85;;
23179;SDS011;11758;45.756;11.432;2023-03-20T00:12:42;30.77;;;21.13;;
23179;SDS011;11758;45.756;11.432;2023-03-20T00:17:47;31.20;;;19.33;;
23179;SDS011;11758;45.756;11.432;2023-03-20T00:20:15;31.35;;;20.25;;
23179;SDS011;11758;45.756;11.432;2023-03-20T00:23:13;31.55;;;19.17;;
23179;SDS011;11758;45.756;11.432;2023-03-20T00:25:40;35.60;;;20.27;;
23179;SDS011;11758;45.756;11.432;2023-03-20T00:28:25;29.40;;;19.80;;
23179;SDS011;11758;45.756;11.432;2023-03-20T00:30:53;28.33;;;19.52;;
23179;SDS011;11758;45.756;11.432;2023-03-20T00:33:19;31.70;;;19.67;;
23179;SDS011;11758;45.756;11.432;2023-03-20T00:35:45;29.92;;;20.30;;
23179;SDS011;11758;45.756;11.432;2023-03-20T00:38:11;30.63;;;20.92;;
23179;SDS011;11758;45.756;11.432;2023-03-20T00:40:37;33.97;;;20.30;;
23179;SDS011;11758;45.756;11.432;2023-03-20T00:43:04;31.90;;;21.05;;
23179;SDS011;11758;45.756;11.432;2023-03-20T00:45:30;36.00;;;21.10;;
23179;SDS011;11758;45.756;11.432;2023-03-20T00:47:57;33.88;;;20.23;;
23179;SDS011;11758;45.756;11.432;2023-03-20T00:50:25;31.25;;;20.48;;
23179;SDS011;11758;45.756;11.432;2023-03-20T00:52:53;32.70;;;21.58;;
23179;SDS011;11758;45.756;11.432;2023-03-20T00:55:20;31.30;;;20.67;;
23179;SDS011;11758;45.756;11.432;2023-03-20T00:57:51;35.33;;;21.65;;
23179;SDS011;11758;45.756;11.432;2023-03-20T01:00:23;32.85;;;22.05;;
23179;SDS011;11758;45.756;11.432;2023-03-20T01:02:51;34.78;;;19.95;;
23179;SDS011;11758;45.756;11.432;2023-03-20T01:05:18;36.83;;;21.92;;
23179;SDS011;11758;45.756;11.432;2023-03-20T01:07:44;33.70;;;21.30;;
23179;SDS011;11758;45.756;11.432;2023-03-20T01:10:10;33.47;;;21.80;;
23179;SDS011;11758;45.756;11.432;2023-03-20T01:12:39;32.50;;;21.48;;
23179;SDS011;11758;45.756;11.432;2023-03-20T01:15:24;43.00;;;23.83;;
23179;SDS011;11758;45.756;11.432;2023-03-20T01:17:52;37.83;;;21.75;;
23179;SDS011;11758;45.756;11.432;2023-03-20T01:20:28;32.55;;;21.23;;
23179;SDS011;11758;45.756;11.432;2023-03-20T01:22:54;30.05;;;21.42;;
23179;SDS011;11758;45.756;11.432;2023-03-20T01:25:21;38.40;;;21.70;;
23179;SDS011;11758;45.756;11.432;2023-03-20T01:27:50;35.78;;;21.73;;
23179;SDS011;11758;45.756;11.432;2023-03-20T01:30:22;35.58;;;22.05;;
23179;SDS011;11758;45.756;11.432;2023-03-20T01:32:48;33.47;;;21.38;;
23179;SDS011;11758;45.756;11.432;2023-03-20T01:35:15;34.22;;;22.50;;
23179;SDS011;11758;45.756;11.432;2023-03-20T01:37:42;33.63;;;21.60;;
23179;SDS011;11758;45.756;11.432;2023-03-20T01:40:12;37.83;;;23.30;;
23179;SDS011;11758;45.756;11.432;2023-03-20T01:42:41;34.45;;;22.33;;
23179;SDS011;11758;45.756;11.432;2023-03-20T01:45:18;36.28;;;23.75;;
23179;SDS011;11758;45.756;11.432;2023-03-20T01:47:45;37.30;;;22.90;;
23179;SDS011;11758;45.756;11.432;2023-03-20T01:50:20;35.13;;;23.85;;
23179;SDS011;11758;45.756;11.432;2023-03-20T01:52:47;35.08;;;23.33;;
23179;SDS011;11758;45.756;11.432;2023-03-20T01:55:14;37.42;;;24.33;;
23179;SDS011;11758;45.756;11.432;2023-03-20T01:57:40;41.40;;;26.02;;
23179;SDS011;11758;45.756;11.432;2023-03-20T02:00:10;39.95;;;24.80;;
23179;SDS011;11758;45.756;11.432;2023-03-20T02:02:38;39.60;;;25.27;;
23179;SDS011;11758;45.756;11.432;2023-03-20T02:05:06;39.15;;;25.23;;
23179;SDS011;11758;45.756;11.432;2023-03-20T02:07:33;35.97;;;22.58;;
23179;SDS011;11758;45.756;11.432;2023-03-20T02:10:01;36.17;;;23.67;;
23179;SDS011;11758;45.756;11.432;2023-03-20T02:12:27;36.17;;;23.70;;
23179;SDS011;11758;45.756;11.432;2023-03-20T02:14:53;36.78;;;23.10;;
23179;SDS011;11758;45.756;11.432;2023-03-20T02:17:20;36.08;;;22.77;;
23179;SDS011;11758;45.756;11.432;2023-03-20T02:22:36;36.83;;;24.30;;
23179;SDS011;11758;45.756;11.432;2023-03-20T02:25:13;32.40;;;23.05;;
23179;SDS011;11758;45.756;11.432;2023-03-20T02:45:25;39.05;;;24.63;;
23179;SDS011;11758;45.756;11.432;2023-03-20T02:47:55;37.67;;;24.25;;
23179;SDS011;11758;45.756;11.432;2023-03-20T02:50:35;38.50;;;24.23;;
23179;SDS011;11758;45.756;11.432;2023-03-20T02:55:36;37.05;;;23.88;;
23179;SDS011;11758;45.756;11.432;2023-03-20T02:58:09;37.90;;;24.60;;
23179;SDS011;11758;45.756;11.432;2023-03-20T03:00:38;37.42;;;24.52;;
23179;SDS011;11758;45.756;11.432;2023-03-20T03:05:39;49.40;;;28.45;;
23179;SDS011;11758;45.756;11.432;2023-03-20T03:08:07;47.17;;;30.23;;
23179;SDS011;11758;45.756;11.432;2023-03-20T03:10:37;48.50;;;30.05;;
23179;SDS011;11758;45.756;11.432;2023-03-20T03:13:05;41.38;;;27.02;;
23179;SDS011;11758;45.756;11.432;2023-03-20T03:15:36;38.33;;;24.30;;
23179;SDS011;11758;45.756;11.432;2023-03-20T03:18:04;39.35;;;25.58;;
23179;SDS011;11758;45.756;11.432;2023-03-20T03:20:32;39.47;;;25.63;;
23179;SDS011;11758;45.756;11.432;2023-03-20T03:22:59;39.10;;;24.42;;
23179;SDS011;11758;45.756;11.432;2023-03-20T03:25:27;40.67;;;26.60;;
23179;SDS011;11758;45.756;11.432;2023-03-20T03:28:02;46.33;;;26.42;;
23179;SDS011;11758;45.756;11.432;2023-03-20T03:30:30;42.42;;;26.98;;
23179;SDS011;11758;45.756;11.432;2023-03-20T03:36:01;42.17;;;24.98;;
23179;SDS011;11758;45.756;11.432;2023-03-20T03:38:33;42.75;;;27.80;;
23179;SDS011;11758;45.756;11.432;2023-03-20T03:41:04;47.47;;;28.85;;
23179;SDS011;11758;45.756;11.432;2023-03-20T03:43:33;47.35;;;28.63;;
23179;SDS011;11758;45.756;11.432;2023-03-20T03:46:10;46.40;;;29.35;;
23179;SDS011;11758;45.756;11.432;2023-03-20T03:48:43;51.10;;;28.92;;
23179;SDS011;11758;45.756;11.432;2023-03-20T03:51:11;48.30;;;29.20;;
23179;SDS011;11758;45.756;11.432;2023-03-20T03:53:39;45.20;;;26.70;;
23179;SDS011;11758;45.756;11.432;2023-03-20T03:56:07;46.85;;;28.25;;
23179;SDS011;11758;45.756;11.432;2023-03-20T03:58:39;46.80;;;28.27;;
23179;SDS011;11758;45.756;11.432;2023-03-20T04:01:06;48.03;;;27.77;;
23179;SDS011;11758;45.756;11.432;2023-03-20T04:03:37;47.75;;;27.85;;
23179;SDS011;11758;45.756;11.432;2023-03-20T04:06:04;51.85;;;29.05;;
23179;SDS011;11758;45.756;11.432;2023-03-20T04:08:31;48.25;;;28.40;;
23179;SDS011;11758;45.756;11.432;2023-03-20T04:10:58;51.55;;;30.70;;
23179;SDS011;11758;45.756;11.432;2023-03-20T04:13:24;45.90;;;29.35;;
23179;SDS011;11758;45.756;11.432;2023-03-20T04:15:50;43.10;;;27.60;;
23179;SDS011;11758;45.756;11.432;2023-03-20T04:18:17;48.65;;;29.17;;
23179;SDS011;11758;45.756;11.432;2023-03-20T04:20:44;41.60;;;26.08;;
23179;SDS011;11758;45.756;11.432;2023-03-20T04:23:10;44.22;;;27.10;;
23179;SDS011;11758;45.756;11.432;2023-03-20T04:25:36;44.30;;;28.58;;
23179;SDS011;11758;45.756;11.432;2023-03-20T04:28:02;44.40;;;27.58;;
23179;SDS011;11758;45.756;11.432;2023-03-20T04:30:28;46.65;;;28.45;;
23179;SDS011;11758;45.756;11.432;2023-03-20T04:32:54;51.45;;;29.25;;
23179;SDS011;11758;45.756;11.432;2023-03-20T04:35:21;41.25;;;27.98;;
23179;SDS011;11758;45.756;11.432;2023-03-20T04:37:47;55.97;;;31.40;;
23179;SDS011;11758;45.756;11.432;2023-03-20T04:40:13;54.03;;;31.85;;
23179;SDS011;11758;45.756;11.432;2023-03-20T04:42:39;47.17;;;30.88;;
23179;SDS011;11758;45.756;11.432;2023-03-20T04:45:06;54.90;;;31.77;;
23179;SDS011;11758;45.756;11.432;2023-03-20T04:47:32;52.10;;;31.77;;
23179;SDS011;11758;45.756;11.432;2023-03-20T04:49:58;52.25;;;31.00;;
23179;SDS011;11758;45.756;11.432;2023-03-20T04:52:24;50.72;;;31.52;;
23179;SDS011;11758;45.756;11.432;2023-03-20T04:54:50;53.28;;;31.00;;
23179;SDS011;11758;45.756;11.432;2023-03-20T04:57:16;45.78;;;28.55;;
23179;SDS011;11758;45.756;11.432;2023-03-20T04:59:42;44.13;;;27.52;;
23179;SDS011;11758;45.756;11.432;2023-03-20T05:02:09;45.30;;;28.83;;
23179;SDS011;11758;45.756;11.432;2023-03-20T05:04:39;46.42;;;28.88;;
23179;SDS011;11758;45.756;11.432;2023-03-20T05:07:05;54.65;;;29.58;;
23179;SDS011;11758;45.756;11.432;2023-03-20T05:09:31;46.97;;;28.70;;
23179;SDS011;11758;45.756;11.432;2023-03-20T05:11:57;45.22;;;27.45;;
23179;SDS011;11758;45.756;11.432;2023-03-20T05:14:23;45.88;;;28.45;;
23179;SDS011;11758;45.756;11.432;2023-03-20T05:16:49;48.30;;;29.60;;
23179;SDS011;11758;45.756;11.432;2023-03-20T05:19:16;42.25;;;27.50;;
23179;SDS011;11758;45.756;11.432;2023-03-20T05:21:42;42.75;;;27.50;;
23179;SDS011;11758;45.756;11.432;2023-03-20T05:24:08;44.78;;;28.23;;
23179;SDS011;11758;45.756;11.432;2023-03-20T05:26:35;46.53;;;27.77;;
23179;SDS011;11758;45.756;11.432;2023-03-20T05:29:01;48.15;;;30.60;;
23179;SDS011;11758;45.756;11.432;2023-03-20T05:31:27;49.03;;;30.65;;
23179;SDS011;11758;45.756;11.432;2023-03-20T05:33:53;49.25;;;30.23;;
23179;SDS011;11758;45.756;11.432;2023-03-20T05:36:19;49.38;;;28.20;;
23179;SDS011;11758;45.756;11.432;2023-03-20T05:38:46;44.22;;;28.42;;
23179;SDS011;11758;45.756;11.432;2023-03-20T05:41:12;50.38;;;29.00;;
23179;SDS011;11758;45.756;11.432;2023-03-20T05:43:38;52.28;;;28.45;;
23179;SDS011;11758;45.756;11.432;2023-03-20T05:46:04;45.08;;;28.17;;
23179;SDS011;11758;45.756;11.432;2023-03-20T05:48:30;45.80;;;28.05;;
23179;SDS011;11758;45.756;11.432;2023-03-20T05:50:56;47.47;;;28.98;;
23179;SDS011;11758;45.756;11.432;2023-03-20T05:53:22;48.58;;;29.80;;
23179;SDS011;11758;45.756;11.432;2023-03-20T05:55:48;47.22;;;29.00;;
23179;SDS011;11758;45.756;11.432;2023-03-20T05:58:14;50.75;;;31.00;;
23179;SDS011;11758;45.756;11.432;2023-03-20T06:00:41;62.13;;;33.20;;
23179;SDS011;11758;45.756;11.432;2023-03-20T06:03:07;56.30;;;32.00;;
23179;SDS011;11758;45.756;11.432;2023-03-20T06:05:33;65.18;;;34.13;;
23179;SDS011;11758;45.756;11.432;2023-03-20T06:08:00;58.38;;;32.65;;
23179;SDS011;11758;45.756;11.432;2023-03-20T06:10:26;53.58;;;30.35;;
23179;SDS011;11758;45.756;11.432;2023-03-20T06:12:54;56.28;;;29.80;;
23179;SDS011;11758;45.756;11.432;2023-03-20T06:15:20;49.67;;;29.33;;
23179;SDS011;11758;45.756;11.432;2023-03-20T06:17:46;57.92;;;32.35;;
23179;SDS011;11758;45.756;11.432;2023-03-20T06:20:12;55.10;;;31.70;;
23179;SDS011;11758;45.756;11.432;2023-03-20T06:22:39;57.22;;;33.33;;
23179;SDS011;11758;45.756;11.432;2023-03-20T06:25:06;53.90;;;32.20;;
23179;SDS011;11758;45.756;11.432;2023-03-20T06:27:32;59.05;;;32.95;;
23179;SDS011;11758;45.756;11.432;2023-03-20T06:29:58;57.92;;;34.03;;
23179;SDS011;11758;45.756;11.432;2023-03-20T06:32:24;52.47;;;32.25;;
23179;SDS011;11758;45.756;11.432;2023-03-20T06:34:51;49.97;;;31.60;;
23179;SDS011;11758;45.756;11.432;2023-03-20T06:37:17;59.58;;;32.70;;
23179;SDS011;11758;45.756;11.432;2023-03-20T06:39:44;56.20;;;31.58;;
23179;SDS011;11758;45.756;11.432;2023-03-20T06:42:10;64.45;;;32.42;;
23179;SDS011;11758;45.756;11.432;2023-03-20T06:44:37;57.97;;;34.05;;
23179;SDS011;11758;45.756;11.432;2023-03-20T06:47:03;55.97;;;32.90;;
23179;SDS011;11758;45.756;11.432;2023-03-20T06:49:29;57.97;;;34.70;;
23179;SDS011;11758;45.756;11.432;2023-03-20T06:51:55;58.08;;;33.08;;
23179;SDS011;11758;45.756;11.432;2023-03-20T06:54:23;62.85;;;34.58;;
23179;SDS011;11758;45.756;11.432;2023-03-20T06:56:49;56.63;;;34.30;;
23179;SDS011;11758;45.756;11.432;2023-03-20T06:59:16;59.65;;;31.83;;
23179;SDS011;11758;45.756;11.432;2023-03-20T07:01:42;55.83;;;33.17;;
23179;SDS011;11758;45.756;11.432;2023-03-20T07:04:08;51.63;;;32.70;;
23179;SDS011;11758;45.756;11.432;2023-03-20T07:06:34;53.65;;;32.05;;
23179;SDS011;11758;45.756;11.432;2023-03-20T07:09:00;49.97;;;31.88;;
23179;SDS011;11758;45.756;11.432;2023-03-20T07:11:28;57.15;;;32.75;;
23179;SDS011;11758;45.756;11.432;2023-03-20T07:13:54;53.35;;;32.38;;
23179;SDS011;11758;45.756;11.432;2023-03-20T07:16:20;52.38;;;33.25;;
23179;SDS011;11758;45.756;11.432;2023-03-20T07:18:47;55.20;;;33.33;;
23179;SDS011;11758;45.756;11.432;2023-03-20T07:21:16;62.17;;;34.33;;
23179;SDS011;11758;45.756;11.432;2023-03-20T07:23:43;51.90;;;31.92;;
23179;SDS011;11758;45.756;11.432;2023-03-20T07:26:09;51.97;;;33.05;;
23179;SDS011;11758;45.756;11.432;2023-03-20T07:28:36;57.47;;;33.05;;
23179;SDS011;11758;45.756;11.432;2023-03-20T07:31:02;50.38;;;32.35;;
23179;SDS011;11758;45.756;11.432;2023-03-20T07:33:28;52.03;;;32.72;;
23179;SDS011;11758;45.756;11.432;2023-03-20T07:35:55;55.30;;;33.65;;
23179;SDS011;11758;45.756;11.432;2023-03-20T07:38:21;59.13;;;34.85;;
23179;SDS011;11758;45.756;11.432;2023-03-20T07:40:48;54.78;;;33.47;;
23179;SDS011;11758;45.756;11.432;2023-03-20T07:43:15;53.00;;;34.35;;
23179;SDS011;11758;45.756;11.432;2023-03-20T07:45:42;56.38;;;32.28;;
23179;SDS011;11758;45.756;11.432;2023-03-20T07:48:08;55.28;;;33.70;;
23179;SDS011;11758;45.756;11.432;2023-03-20T07:50:35;53.22;;;32.00;;
23179;SDS011;11758;45.756;11.432;2023-03-20T07:53:01;57.40;;;33.78;;
23179;SDS011;11758;45.756;11.432;2023-03-20T07:55:27;51.35;;;32.58;;
23179;SDS011;11758;45.756;11.432;2023-03-20T07:57:53;50.88;;;33.75;;
23179;SDS011;11758;45.756;11.432;2023-03-20T08:00:19;55.03;;;34.40;;
23179;SDS011;11758;45.756;11.432;2023-03-20T08:02:45;52.78;;;31.73;;
23179;SDS011;11758;45.756;11.432;2023-03-20T08:05:12;53.15;;;32.13;;
23179;SDS011;11758;45.756;11.432;2023-03-20T08:07:38;54.97;;;31.88;;
23179;SDS011;11758;45.756;11.432;2023-03-20T08:10:04;50.50;;;31.33;;
23179;SDS011;11758;45.756;11.432;2023-03-20T08:12:30;48.75;;;31.77;;
23179;SDS011;11758;45.756;11.432;2023-03-20T08:14:56;48.40;;;30.98;;
23179;SDS011;11758;45.756;11.432;2023-03-20T08:17:22;44.25;;;29.27;;
23179;SDS011;11758;45.756;11.432;2023-03-20T08:19:48;43.05;;;27.77;;
23179;SDS011;11758;45.756;11.432;2023-03-20T08:22:15;37.47;;;25.98;;
23179;SDS011;11758;45.756;11.432;2023-03-20T08:24:41;41.45;;;24.35;;
23179;SDS011;11758;45.756;11.432;2023-03-20T08:27:07;37.33;;;23.77;;
23179;SDS011;11758;45.756;11.432;2023-03-20T08:29:33;41.63;;;27.38;;
23179;SDS011;11758;45.756;11.432;2023-03-20T08:32:00;42.55;;;26.92;;
23179;SDS011;11758;45.756;11.432;2023-03-20T08:34:26;40.65;;;25.42;;
23179;SDS011;11758;45.756;11.432;2023-03-20T08:36:52;41.90;;;25.55;;
23179;SDS011;11758;45.756;11.432;2023-03-20T08:39:18;36.05;;;23.20;;
23179;SDS011;11758;45.756;11.432;2023-03-20T08:41:45;36.28;;;24.27;;
23179;SDS011;11758;45.756;11.432;2023-03-20T08:44:12;47.35;;;29.10;;
23179;SDS011;11758;45.756;11.432;2023-03-20T08:46:38;47.00;;;27.92;;
23179;SDS011;11758;45.756;11.432;2023-03-20T08:49:04;37.53;;;25.88;;
23179;SDS011;11758;45.756;11.432;2023-03-20T08:51:31;37.30;;;24.13;;
23179;SDS011;11758;45.756;11.432;2023-03-20T08:53:57;40.22;;;23.90;;
23179;SDS011;11758;45.756;11.432;2023-03-20T08:56:23;48.75;;;26.48;;
23179;SDS011;11758;45.756;11.432;2023-03-20T08:58:49;38.22;;;24.25;;
23179;SDS011;11758;45.756;11.432;2023-03-20T09:01:17;38.47;;;24.50;;
23179;SDS011;11758;45.756;11.432;2023-03-20T09:03:43;38.38;;;24.92;;
23179;SDS011;11758;45.756;11.432;2023-03-20T09:06:10;43.45;;;24.02;;
23179;SDS011;11758;45.756;11.432;2023-03-20T09:08:36;42.45;;;26.67;;
23179;SDS011;11758;45.756;11.432;2023-03-20T09:11:03;36.25;;;22.40;;
23179;SDS011;11758;45.756;11.432;2023-03-20T09:13:29;36.50;;;24.70;;
23179;SDS011;11758;45.756;11.432;2023-03-20T09:15:55;37.92;;;24.50;;
23179;SDS011;11758;45.756;11.432;2023-03-20T09:18:22;41.25;;;24.45;;
23179;SDS011;11758;45.756;11.432;2023-03-20T09:20:48;36.78;;;24.10;;
23179;SDS011;11758;45.756;11.432;2023-03-20T09:23:15;51.05;;;33.47;;
23179;SDS011;11758;45.756;11.432;2023-03-20T09:25:41;48.95;;;31.95;;
23179;SDS011;11758;45.756;11.432;2023-03-20T09:28:07;45.33;;;26.63;;
23179;SDS011;11758;45.756;11.432;2023-03-20T09:30:33;46.70;;;28.55;;
23179;SDS011;11758;45.756;11.432;2023-03-20T09:32:59;33.50;;;21.90;;
23179;SDS011;11758;45.756;11.432;2023-03-20T09:35:25;38.47;;;24.83;;
23179;SDS011;11758;45.756;11.432;2023-03-20T09:37:51;38.35;;;25.05;;
23179;SDS011;11758;45.756;11.432;2023-03-20T09:40:23;33.70;;;21.50;;
23179;SDS011;11758;45.756;11.432;2023-03-20T09:45:40;35.75;;;22.02;;
23179;SDS011;11758;45.756;11.432;2023-03-20T09:48:18;36.20;;;22.05;;
23179;SDS011;11758;45.756;11.432;2023-03-20T09:50:52;35.53;;;21.83;;
23179;SDS011;11758;45.756;11.432;2023-03-20T09:53:24;107.38;;;53.47;;
23179;SDS011;11758;45.756;11.432;2023-03-20T09:55:52;36.63;;;22.23;;
23179;SDS011;11758;45.756;11.432;2023-03-20T09:58:24;49.38;;;28.95;;
23179;SDS011;11758;45.756;11.432;2023-03-20T10:00:51;37.25;;;23.85;;
23179;SDS011;11758;45.756;11.432;2023-03-20T10:03:21;41.53;;;23.27;;
23179;SDS011;11758;45.756;11.432;2023-03-20T10:05:59;36.45;;;22.67;;
23179;SDS011;11758;45.756;11.432;2023-03-20T10:08:29;33.67;;;21.25;;
23179;SDS011;11758;45.756;11.432;2023-03-20T10:18:38;33.72;;;21.85;;
23179;SDS011;11758;45.756;11.432;2023-03-20T10:22:09;37.00;;;22.70;;
23179;SDS011;11758;45.756;11.432;2023-03-20T10:24:04;36.63;;;23.17;;
23179;SDS011;11758;45.756;11.432;2023-03-20T10:26:34;41.08;;;23.80;;
23179;SDS011;11758;45.756;11.432;2023-03-20T10:29:01;35.58;;;23.67;;
23179;SDS011;11758;45.756;11.432;2023-03-20T10:39:17;39.42;;;24.20;;
23179;SDS011;11758;45.756;11.432;2023-03-20T10:42:09;39.60;;;23.92;;
23179;SDS011;11758;45.756;11.432;2023-03-20T10:44:32;37.05;;;24.30;;
23179;SDS011;11758;45.756;11.432;2023-03-20T10:47:00;37.67;;;23.85;;
23179;SDS011;11758;45.756;11.432;2023-03-20T10:49:38;37.05;;;23.45;;
23179;SDS011;11758;45.756;11.432;2023-03-20T10:52:09;37.00;;;23.90;;
23179;SDS011;11758;45.756;11.432;2023-03-20T10:54:41;37.78;;;23.35;;
23179;SDS011;11758;45.756;11.432;2023-03-20T10:57:17;35.38;;;24.63;;
23179;SDS011;11758;45.756;11.432;2023-03-20T10:59:46;39.83;;;24.48;;
23179;SDS011;11758;45.756;11.432;2023-03-20T11:02:14;44.92;;;25.58;;
23179;SDS011;11758;45.756;11.432;2023-03-20T11:04:41;38.40;;;25.77;;
23179;SDS011;11758;45.756;11.432;2023-03-20T11:09:37;36.67;;;24.90;;
23179;SDS011;11758;45.756;11.432;2023-03-20T11:12:03;44.22;;;25.80;;
23179;SDS011;11758;45.756;11.432;2023-03-20T11:14:34;36.53;;;25.25;;
23179;SDS011;11758;45.756;11.432;2023-03-20T11:17:01;43.65;;;26.15;;
23179;SDS011;11758;45.756;11.432;2023-03-20T11:19:31;39.88;;;24.92;;
23179;SDS011;11758;45.756;11.432;2023-03-20T11:21:59;39.97;;;25.88;;
23179;SDS011;11758;45.756;11.432;2023-03-20T11:24:28;38.97;;;24.55;;
23179;SDS011;11758;45.756;11.432;2023-03-20T11:27:18;38.95;;;25.05;;
23179;SDS011;11758;45.756;11.432;2023-03-20T11:29:45;37.72;;;25.58;;
23179;SDS011;11758;45.756;11.432;2023-03-20T11:34:50;37.97;;;24.77;;
23179;SDS011;11758;45.756;11.432;2023-03-20T11:37:25;42.63;;;25.35;;
23179;SDS011;11758;45.756;11.432;2023-03-20T11:39:55;37.95;;;23.67;;
23179;SDS011;11758;45.756;11.432;2023-03-20T11:42:23;41.08;;;24.27;;
23179;SDS011;11758;45.756;11.432;2023-03-20T11:44:57;38.70;;;23.50;;
23179;SDS011;11758;45.756;11.432;2023-03-20T11:47:24;38.03;;;23.65;;
23179;SDS011;11758;45.756;11.432;2023-03-20T11:49:53;34.30;;;23.75;;
23179;SDS011;11758;45.756;11.432;2023-03-20T11:52:23;33.75;;;23.40;;
23179;SDS011;11758;45.756;11.432;2023-03-20T11:54:53;35.50;;;24.02;;
23179;SDS011;11758;45.756;11.432;2023-03-20T11:57:34;37.42;;;23.85;;
23179;SDS011;11758;45.756;11.432;2023-03-20T12:00:03;39.63;;;22.33;;
23179;SDS011;11758;45.756;11.432;2023-03-20T12:02:29;36.70;;;24.00;;
23179;SDS011;11758;45.756;11.432;2023-03-20T12:04:58;35.72;;;24.60;;
23179;SDS011;11758;45.756;11.432;2023-03-20T12:07:26;37.80;;;24.23;;
23179;SDS011;11758;45.756;11.432;2023-03-20T12:09:55;35.42;;;23.33;;
23179;SDS011;11758;45.756;11.432;2023-03-20T12:15:28;34.67;;;23.15;;
23179;SDS011;11758;45.756;11.432;2023-03-20T12:30:31;35.95;;;23.13;;
23179;SDS011;11758;45.756;11.432;2023-03-20T12:32:59;38.15;;;23.88;;
23179;SDS011;11758;45.756;11.432;2023-03-20T12:35:37;37.03;;;24.13;;
23179;SDS011;11758;45.756;11.432;2023-03-20T12:38:10;37.22;;;24.55;;
23179;SDS011;11758;45.756;11.432;2023-03-20T12:40:50;36.15;;;23.90;;
23179;SDS011;11758;45.756;11.432;2023-03-20T12:43:21;38.65;;;24.48;;
23179;SDS011;11758;45.756;11.432;2023-03-20T12:45:52;32.83;;;22.95;;
23179;SDS011;11758;45.756;11.432;2023-03-20T13:05:16;34.47;;;23.00;;
23179;SDS011;11758;45.756;11.432;2023-03-20T13:10:19;35.88;;;22.88;;
23179;SDS011;11758;45.756;11.432;2023-03-20T13:18:32;35.90;;;23.50;;
23179;SDS011;11758;45.756;11.432;2023-03-20T13:21:02;33.58;;;23.23;;
23179;SDS011;11758;45.756;11.432;2023-03-20T13:23:44;35.22;;;23.30;;
23179;SDS011;11758;45.756;11.432;2023-03-20T13:29:51;36.22;;;23.73;;
23179;SDS011;11758;45.756;11.432;2023-03-20T13:35:07;33.95;;;23.98;;
23179;SDS011;11758;45.756;11.432;2023-03-20T13:37:57;36.47;;;22.25;;
23179;SDS011;11758;45.756;11.432;2023-03-20T13:40:26;41.55;;;23.25;;
23179;SDS011;11758;45.756;11.432;2023-03-20T13:43:05;40.72;;;23.90;;
23179;SDS011;11758;45.756;11.432;2023-03-20T13:45:39;37.47;;;22.75;;
23179;SDS011;11758;45.756;11.432;2023-03-20T13:48:12;38.25;;;23.05;;
23179;SDS011;11758;45.756;11.432;2023-03-20T13:56:07;32.25;;;23.20;;
23179;SDS011;11758;45.756;11.432;2023-03-20T13:58:53;37.97;;;23.45;;
23179;SDS011;11758;45.756;11.432;2023-03-20T14:04:11;40.30;;;22.88;;
23179;SDS011;11758;45.756;11.432;2023-03-20T14:06:44;38.92;;;22.17;;
23179;SDS011;11758;45.756;11.432;2023-03-20T14:09:26;31.42;;;22.10;;
23179;SDS011;11758;45.756;11.432;2023-03-20T14:11:53;34.50;;;22.85;;
23179;SDS011;11758;45.756;11.432;2023-03-20T14:17:00;39.67;;;23.27;;
23179;SDS011;11758;45.756;11.432;2023-03-20T14:19:27;30.98;;;21.58;;
23179;SDS011;11758;45.756;11.432;2023-03-20T14:21:55;36.05;;;23.73;;
23179;SDS011;11758;45.756;11.432;2023-03-20T14:24:22;37.28;;;23.67;;
23179;SDS011;11758;45.756;11.432;2023-03-20T14:26:50;37.17;;;25.40;;
23179;SDS011;11758;45.756;11.432;2023-03-20T14:29:19;38.85;;;23.45;;
23179;SDS011;11758;45.756;11.432;2023-03-20T14:31:49;36.50;;;23.23;;
23179;SDS011;11758;45.756;11.432;2023-03-20T14:34:18;33.67;;;23.27;;
23179;SDS011;11758;45.756;11.432;2023-03-20T14:36:50;35.67;;;23.95;;
23179;SDS011;11758;45.756;11.432;2023-03-20T14:39:29;34.22;;;23.52;;
23179;SDS011;11758;45.756;11.432;2023-03-20T14:42:02;32.22;;;22.42;;
23179;SDS011;11758;45.756;11.432;2023-03-20T14:47:01;36.35;;;23.52;;
23179;SDS011;11758;45.756;11.432;2023-03-20T14:49:44;34.22;;;23.33;;
23179;SDS011;11758;45.756;11.432;2023-03-20T14:52:32;37.80;;;22.70;;
23179;SDS011;11758;45.756;11.432;2023-03-20T14:55:14;35.30;;;22.95;;
23179;SDS011;11758;45.756;11.432;2023-03-20T14:57:40;30.13;;;22.10;;
23179;SDS011;11758;45.756;11.432;2023-03-20T15:02:44;33.65;;;22.27;;
23179;SDS011;11758;45.756;11.432;2023-03-20T15:05:20;34.80;;;23.13;;
23179;SDS011;11758;45.756;11.432;2023-03-20T15:07:54;41.55;;;23.00;;
23179;SDS011;11758;45.756;11.432;2023-03-20T15:10:20;36.35;;;22.17;;
23179;SDS011;11758;45.756;11.432;2023-03-20T15:12:47;35.80;;;21.65;;
23179;SDS011;11758;45.756;11.432;2023-03-20T15:15:22;32.95;;;22.70;;
23179;SDS011;11758;45.756;11.432;2023-03-20T15:17:50;37.65;;;21.48;;
23179;SDS011;11758;45.756;11.432;2023-03-20T15:20:19;30.33;;;20.98;;
23179;SDS011;11758;45.756;11.432;2023-03-20T15:22:56;33.38;;;20.67;;
23179;SDS011;11758;45.756;11.432;2023-03-20T15:25:27;31.35;;;20.52;;
23179;SDS011;11758;45.756;11.432;2023-03-20T15:27:55;32.55;;;21.38;;
23179;SDS011;11758;45.756;11.432;2023-03-20T15:30:23;30.55;;;20.42;;
23179;SDS011;11758;45.756;11.432;2023-03-20T15:32:52;34.60;;;21.23;;
23179;SDS011;11758;45.756;11.432;2023-03-20T15:35:20;29.85;;;20.75;;
23179;SDS011;11758;45.756;11.432;2023-03-20T15:37:47;34.47;;;22.50;;
23179;SDS011;11758;45.756;11.432;2023-03-20T15:42:57;34.42;;;20.95;;
23179;SDS011;11758;45.756;11.432;2023-03-20T15:45:26;32.85;;;21.30;;
23179;SDS011;11758;45.756;11.432;2023-03-20T15:48:26;31.10;;;20.35;;
23179;SDS011;11758;45.756;11.432;2023-03-20T15:50:50;35.90;;;21.15;;
23179;SDS011;11758;45.756;11.432;2023-03-20T15:53:20;34.75;;;20.80;;
23179;SDS011;11758;45.756;11.432;2023-03-20T15:55:49;36.63;;;20.13;;
23179;SDS011;11758;45.756;11.432;2023-03-20T15:58:15;29.23;;;20.30;;
23179;SDS011;11758;45.756;11.432;2023-03-20T16:00:45;29.55;;;19.27;;
23179;SDS011;11758;45.756;11.432;2023-03-20T16:03:13;31.90;;;22.40;;
23179;SDS011;11758;45.756;11.432;2023-03-20T16:05:44;42.20;;;21.42;;
23179;SDS011;11758;45.756;11.432;2023-03-20T16:10:40;32.40;;;20.23;;
23179;SDS011;11758;45.756;11.432;2023-03-20T16:13:09;28.65;;;19.63;;
23179;SDS011;11758;45.756;11.432;2023-03-20T16:15:37;34.28;;;19.20;;
23179;SDS011;11758;45.756;11.432;2023-03-20T16:18:04;33.88;;;19.95;;
23179;SDS011;11758;45.756;11.432;2023-03-20T16:20:38;28.73;;;20.63;;
23179;SDS011;11758;45.756;11.432;2023-03-20T16:23:06;31.90;;;20.65;;